sensor_id;sensor_type;location;lat;lon;timestamp;pressure;altitude;pressure_sealevel;temperature;humidity
78773;BME280;68111;44.728;11.290;2024-03-23T00:53:49;101361.47;;;19.34;40.31
78773;BME280;68111;44.728;11.290;2024-03-23T00:56:15;101366.00;;;19.32;40.11
78773;BME280;68111;44.728;11.290;2024-03-23T00:58:41;101359.78;;;19.30;40.26
78773;BME280;68111;44.728;11.290;2024-03-23T01:01:07;101363.38;;;19.29;40.49
78773;BME280;68111;44.728;11.290;2024-03-23T01:03:32;101359.81;;;19.28;40.34
78773;BME280;68111;44.728;11.290;2024-03-23T01:06:02;101360.63;;;19.32;40.24
78773;BME280;68111;44.728;11.290;2024-03-23T01:08:29;101354.31;;;19.34;39.97
78773;BME280;68111;44.728;11.290;2024-03-23T01:10:59;101354.25;;;19.36;40.24
78773;BME280;68111;44.728;11.290;2024-03-23T01:13:26;101351.56;;;19.37;40.08
78773;BME280;68111;44.728;11.290;2024-03-23T01:15:52;101353.31;;;19.38;39.88
78773;BME280;68111;44.728;11.290;2024-03-23T01:18:19;101356.88;;;19.39;39.56
78773;BME280;68111;44.728;11.290;2024-03-23T01:20:45;101354.19;;;19.39;39.60
78773;BME280;68111;44.728;11.290;2024-03-23T01:23:11;101355.13;;;19.38;39.69
78773;BME280;68111;44.728;11.290;2024-03-23T01:25:37;101349.78;;;19.36;39.63
78773;BME280;68111;44.728;11.290;2024-03-23T01:28:03;101346.25;;;19.34;39.60
78773;BME280;68111;44.728;11.290;2024-03-23T01:30:29;101348.97;;;19.33;39.33
78773;BME280;68111;44.728;11.290;2024-03-23T01:32:56;101339.19;;;19.32;39.46
78773;BME280;68111;44.728;11.290;2024-03-23T01:35:22;101351.69;;;19.31;39.61
78773;BME280;68111;44.728;11.290;2024-03-23T01:37:47;101351.78;;;19.28;39.43
78773;BME280;68111;44.728;11.290;2024-03-23T01:40:13;101349.13;;;19.27;39.50
78773;BME280;68111;44.728;11.290;2024-03-23T01:42:40;101343.84;;;19.24;39.62
78773;BME280;68111;44.728;11.290;2024-03-23T01:45:09;101340.31;;;19.22;39.68
78773;BME280;68111;44.728;11.290;2024-03-23T01:47:38;101342.16;;;19.19;39.48
78773;BME280;68111;44.728;11.290;2024-03-23T01:50:04;101338.63;;;19.17;39.56
78773;BME280;68111;44.728;11.290;2024-03-23T01:52:30;101335.09;;;19.15;39.25
78773;BME280;68111;44.728;11.290;2024-03-23T01:54:56;101329.81;;;19.12;39.39
78773;BME280;68111;44.728;11.290;2024-03-23T01:57:22;101332.53;;;19.11;39.36
78773;BME280;68111;44.728;11.290;2024-03-23T01:59:48;101330.78;;;19.10;39.55
78773;BME280;68111;44.728;11.290;2024-03-23T02:02:23;101332.56;;;19.09;39.64
78773;BME280;68111;44.728;11.290;2024-03-23T02:04:49;101331.72;;;19.07;39.70
78773;BME280;68111;44.728;11.290;2024-03-23T02:07:15;101334.44;;;19.06;39.70
78773;BME280;68111;44.728;11.290;2024-03-23T02:09:41;101329.16;;;19.03;39.60
78773;BME280;68111;44.728;11.290;2024-03-23T02:12:07;101331.88;;;19.01;39.51
78773;BME280;68111;44.728;11.290;2024-03-23T02:14:33;101320.31;;;18.99;39.46
78773;BME280;68111;44.728;11.290;2024-03-23T02:16:58;101317.69;;;18.96;39.50
78773;BME280;68111;44.728;11.290;2024-03-23T02:19:24;101319.53;;;18.94;39.38
78773;BME280;68111;44.728;11.290;2024-03-23T02:21:50;101315.09;;;18.93;39.38
78773;BME280;68111;44.728;11.290;2024-03-23T02:24:16;101304.38;;;18.93;39.44
78773;BME280;68111;44.728;11.290;2024-03-23T02:26:41;101299.03;;;18.93;39.48
78773;BME280;68111;44.728;11.290;2024-03-23T02:29:07;101296.38;;;18.92;39.26
78773;BME280;68111;44.728;11.290;2024-03-23T02:31:35;101291.06;;;18.90;39.20
78773;BME280;68111;44.728;11.290;2024-03-23T02:34:01;101298.25;;;18.88;39.22
78773;BME280;68111;44.728;11.290;2024-03-23T02:36:27;101296.47;;;18.87;39.28
78773;BME280;68111;44.728;11.290;2024-03-23T02:38:53;101300.06;;;18.86;39.19
78773;BME280;68111;44.728;11.290;2024-03-23T02:41:18;101301.00;;;18.85;39.38
78773;BME280;68111;44.728;11.290;2024-03-23T02:43:51;101293.88;;;18.84;38.97
78773;BME280;68111;44.728;11.290;2024-03-23T02:46:17;101296.56;;;18.84;39.31
78773;BME280;68111;44.728;11.290;2024-03-23T02:48:44;101299.28;;;18.82;39.26
78773;BME280;68111;44.728;11.290;2024-03-23T02:51:10;101294.78;;;18.83;39.44
78773;BME280;68111;44.728;11.290;2024-03-23T02:53:35;101297.47;;;18.83;39.21
78773;BME280;68111;44.728;11.290;2024-03-23T02:56:01;101291.25;;;18.81;39.16
78773;BME280;68111;44.728;11.290;2024-03-23T02:58:27;101284.19;;;18.78;39.35
78773;BME280;68111;44.728;11.290;2024-03-23T03:00:53;101281.56;;;18.75;39.40
78773;BME280;68111;44.728;11.290;2024-03-23T03:03:19;101280.75;;;18.72;39.33
78773;BME280;68111;44.728;11.290;2024-03-23T03:05:44;101274.59;;;18.68;39.41
78773;BME280;68111;44.728;11.290;2024-03-23T03:08:10;101264.00;;;18.64;39.34
78773;BME280;68111;44.728;11.290;2024-03-23T03:10:36;101267.63;;;18.61;39.31
78773;BME280;68111;44.728;11.290;2024-03-23T03:13:02;101268.50;;;18.62;39.40
78773;BME280;68111;44.728;11.290;2024-03-23T03:15:28;101264.03;;;18.62;39.37
78773;BME280;68111;44.728;11.290;2024-03-23T03:17:54;101268.50;;;18.62;39.36
78773;BME280;68111;44.728;11.290;2024-03-23T03:20:20;101267.63;;;18.61;39.34
78773;BME280;68111;44.728;11.290;2024-03-23T03:22:47;101264.03;;;18.62;39.37
78773;BME280;68111;44.728;11.290;2024-03-23T03:25:14;101276.53;;;18.62;39.28
78773;BME280;68111;44.728;11.290;2024-03-23T03:27:40;101275.66;;;18.61;39.38
78773;BME280;68111;44.728;11.290;2024-03-23T03:30:06;101277.38;;;18.64;39.48
78773;BME280;68111;44.728;11.290;2024-03-23T03:32:34;101266.59;;;18.67;39.25
78773;BME280;68111;44.728;11.290;2024-03-23T03:35:01;101279.06;;;18.68;39.23
78773;BME280;68111;44.728;11.290;2024-03-23T03:37:26;101265.69;;;18.68;39.20
78773;BME280;68111;44.728;11.290;2024-03-23T03:39:52;101255.00;;;18.66;39.32
78773;BME280;68111;44.728;11.290;2024-03-23T03:42:18;101246.16;;;18.63;39.20
78773;BME280;68111;44.728;11.290;2024-03-23T03:44:44;101248.91;;;18.58;39.21
78773;BME280;68111;44.728;11.290;2024-03-23T03:47:09;101251.63;;;18.57;39.36
78773;BME280;68111;44.728;11.290;2024-03-23T03:49:35;101254.34;;;18.55;39.35
78773;BME280;68111;44.728;11.290;2024-03-23T03:52:01;101254.38;;;18.53;39.59
78773;BME280;68111;44.728;11.290;2024-03-23T03:54:27;101256.16;;;18.53;39.47
78773;BME280;68111;44.728;11.290;2024-03-23T03:56:53;101248.13;;;18.53;39.64
78773;BME280;68111;44.728;11.290;2024-03-23T03:59:19;101252.63;;;18.52;39.37
78773;BME280;68111;44.728;11.290;2024-03-23T04:01:46;101249.09;;;18.50;39.73
78773;BME280;68111;44.728;11.290;2024-03-23T04:04:12;101238.44;;;18.47;39.66
78773;BME280;68111;44.728;11.290;2024-03-23T04:06:39;101242.09;;;18.43;39.68
78773;BME280;68111;44.728;11.290;2024-03-23T04:09:05;101247.53;;;18.40;39.49
78773;BME280;68111;44.728;11.290;2024-03-23T04:11:32;101244.88;;;18.39;39.73
78773;BME280;68111;44.728;11.290;2024-03-23T04:13:57;101231.53;;;18.37;39.51
78773;BME280;68111;44.728;11.290;2024-03-23T04:16:27;101236.03;;;18.35;39.74
78773;BME280;68111;44.728;11.290;2024-03-23T04:18:53;101235.13;;;18.36;40.08
78773;BME280;68111;44.728;11.290;2024-03-23T04:21:20;101233.38;;;18.35;39.65
78773;BME280;68111;44.728;11.290;2024-03-23T04:23:46;101226.25;;;18.34;39.76
78773;BME280;68111;44.728;11.290;2024-03-23T04:26:11;101218.28;;;18.31;39.73
78773;BME280;68111;44.728;11.290;2024-03-23T04:28:38;101217.44;;;18.29;39.80
78773;BME280;68111;44.728;11.290;2024-03-23T04:31:04;101216.59;;;18.27;39.77
78773;BME280;68111;44.728;11.290;2024-03-23T04:33:31;101213.06;;;18.25;39.79
78773;BME280;68111;44.728;11.290;2024-03-23T04:35:57;101217.59;;;18.23;39.97
78773;BME280;68111;44.728;11.290;2024-03-23T04:38:22;101209.59;;;18.21;39.91
78773;BME280;68111;44.728;11.290;2024-03-23T04:40:59;101208.75;;;18.18;39.82
78773;BME280;68111;44.728;11.290;2024-03-23T04:43:28;101206.13;;;18.15;39.78
78773;BME280;68111;44.728;11.290;2024-03-23T04:45:54;101213.31;;;18.13;39.87
78773;BME280;68111;44.728;11.290;2024-03-23T04:48:21;101199.13;;;18.09;39.88
78773;BME280;68111;44.728;11.290;2024-03-23T04:50:54;101204.56;;;18.05;39.86
78773;BME280;68111;44.728;11.290;2024-03-23T04:53:21;101208.19;;;18.02;39.85
78773;BME280;68111;44.728;11.290;2024-03-23T04:55:46;101209.13;;;18.00;39.74
78773;BME280;68111;44.728;11.290;2024-03-23T04:58:12;101210.03;;;17.99;39.72
78773;BME280;68111;44.728;11.290;2024-03-23T05:00:38;101217.25;;;17.95;39.77
78773;BME280;68111;44.728;11.290;2024-03-23T05:03:04;101209.25;;;17.94;39.82
78773;BME280;68111;44.728;11.290;2024-03-23T05:05:30;101200.44;;;17.88;39.90
78773;BME280;68111;44.728;11.290;2024-03-23T05:07:56;101204.03;;;17.87;39.78
78773;BME280;68111;44.728;11.290;2024-03-23T05:10:21;101200.53;;;17.85;39.92
78773;BME280;68111;44.728;11.290;2024-03-23T05:12:47;101206.78;;;17.84;39.76
78773;BME280;68111;44.728;11.290;2024-03-23T05:15:13;101194.34;;;17.82;39.69
78773;BME280;68111;44.728;11.290;2024-03-23T05:17:39;101191.72;;;17.80;39.94
78773;BME280;68111;44.728;11.290;2024-03-23T05:20:05;101183.72;;;17.79;39.60
78773;BME280;68111;44.728;11.290;2024-03-23T05:22:35;101183.75;;;17.77;39.98
78773;BME280;68111;44.728;11.290;2024-03-23T05:25:02;101190.88;;;17.77;39.85
78773;BME280;68111;44.728;11.290;2024-03-23T05:27:32;101179.38;;;17.73;39.91
78773;BME280;68111;44.728;11.290;2024-03-23T05:29:58;101182.09;;;17.72;39.90
78773;BME280;68111;44.728;11.290;2024-03-23T05:32:24;101177.69;;;17.69;39.82
78773;BME280;68111;44.728;11.290;2024-03-23T05:34:50;101175.06;;;17.66;39.82
78773;BME280;68111;44.728;11.290;2024-03-23T05:37:22;101172.38;;;17.65;40.02
78773;BME280;68111;44.728;11.290;2024-03-23T05:39:48;101175.94;;;17.65;40.02
78773;BME280;68111;44.728;11.290;2024-03-23T05:42:18;101171.47;;;17.66;40.04
78773;BME280;68111;44.728;11.290;2024-03-23T05:44:45;101182.19;;;17.66;39.89
78773;BME280;68111;44.728;11.290;2024-03-23T05:47:11;101175.94;;;17.65;40.00
78773;BME280;68111;44.728;11.290;2024-03-23T05:49:38;101175.94;;;17.65;40.08
78773;BME280;68111;44.728;11.290;2024-03-23T05:52:04;101176.81;;;17.66;40.09
78773;BME280;68111;44.728;11.290;2024-03-23T05:54:30;101171.50;;;17.64;40.17
78773;BME280;68111;44.728;11.290;2024-03-23T05:56:55;101174.16;;;17.66;40.18
78773;BME280;68111;44.728;11.290;2024-03-23T05:59:21;101175.06;;;17.65;40.22
78773;BME280;68111;44.728;11.290;2024-03-23T06:01:47;101175.94;;;17.65;40.12
78773;BME280;68111;44.728;11.290;2024-03-23T06:04:13;101175.94;;;17.65;40.11
78773;BME280;68111;44.728;11.290;2024-03-23T06:06:39;101172.41;;;17.63;40.27
78773;BME280;68111;44.728;11.290;2024-03-23T06:09:05;101175.06;;;17.65;40.24
78773;BME280;68111;44.728;11.290;2024-03-23T06:11:31;101171.50;;;17.64;40.22
78773;BME280;68111;44.728;11.290;2024-03-23T06:13:57;101173.34;;;17.62;40.20
78773;BME280;68111;44.728;11.290;2024-03-23T06:16:22;101171.53;;;17.63;40.25
78773;BME280;68111;44.728;11.290;2024-03-23T06:18:53;101168.88;;;17.63;40.24
78773;BME280;68111;44.728;11.290;2024-03-23T06:21:20;101166.19;;;17.63;40.28
78773;BME280;68111;44.728;11.290;2024-03-23T06:23:46;101162.66;;;17.60;40.37
78773;BME280;68111;44.728;11.290;2024-03-23T06:26:20;101155.53;;;17.61;40.28
78773;BME280;68111;44.728;11.290;2024-03-23T06:28:49;101167.13;;;17.60;40.46
78773;BME280;68111;44.728;11.290;2024-03-23T06:31:15;101171.56;;;17.61;40.37
78773;BME280;68111;44.728;11.290;2024-03-23T06:33:40;101170.69;;;17.60;40.36
78773;BME280;68111;44.728;11.290;2024-03-23T06:36:10;101159.09;;;17.62;40.57
78773;BME280;68111;44.728;11.290;2024-03-23T06:38:37;101156.38;;;17.63;40.57
78773;BME280;68111;44.728;11.290;2024-03-23T06:41:06;101156.38;;;17.63;40.58
78773;BME280;68111;44.728;11.290;2024-03-23T06:43:32;101159.94;;;17.64;40.67
78773;BME280;68111;44.728;11.290;2024-03-23T06:45:58;101158.09;;;17.66;40.56
78773;BME280;68111;44.728;11.290;2024-03-23T06:48:24;101162.53;;;17.68;40.57
78773;BME280;68111;44.728;11.290;2024-03-23T06:50:55;101155.38;;;17.70;40.67
78773;BME280;68111;44.728;11.290;2024-03-23T06:53:21;101149.94;;;17.75;40.54
78773;BME280;68111;44.728;11.290;2024-03-23T06:55:51;101152.56;;;17.76;40.61
78773;BME280;68111;44.728;11.290;2024-03-23T06:58:20;101149.91;;;17.76;40.56
78773;BME280;68111;44.728;11.290;2024-03-23T07:00:46;101147.22;;;17.76;40.65
78773;BME280;68111;44.728;11.290;2024-03-23T07:03:12;101151.66;;;17.77;40.79
78773;BME280;68111;44.728;11.290;2024-03-23T07:05:38;101140.06;;;17.78;40.88
78773;BME280;68111;44.728;11.290;2024-03-23T07:08:04;101132.88;;;17.80;41.15
78773;BME280;68111;44.728;11.290;2024-03-23T07:10:30;101144.41;;;17.82;41.04
78773;BME280;68111;44.728;11.290;2024-03-23T07:12:55;101134.56;;;17.84;41.20
78773;BME280;68111;44.728;11.290;2024-03-23T07:15:21;101138.09;;;17.86;41.27
78773;BME280;68111;44.728;11.290;2024-03-23T07:17:47;101130.91;;;17.88;41.20
78773;BME280;68111;44.728;11.290;2024-03-23T07:20:13;101132.59;;;17.92;41.25
78773;BME280;68111;44.728;11.290;2024-03-23T07:22:39;101134.34;;;17.95;41.40
78773;BME280;68111;44.728;11.290;2024-03-23T07:25:05;101133.38;;;17.98;41.52
78773;BME280;68111;44.728;11.290;2024-03-23T07:27:32;101127.13;;;17.99;41.76
78773;BME280;68111;44.728;11.290;2024-03-23T07:29:58;101131.44;;;18.04;41.81
78773;BME280;68111;44.728;11.290;2024-03-23T07:32:23;101121.56;;;18.08;41.82
78773;BME280;68111;44.728;11.290;2024-03-23T07:34:49;101123.25;;;18.12;41.98
78773;BME280;68111;44.728;11.290;2024-03-23T07:37:15;101114.25;;;18.16;42.13
78773;BME280;68111;44.728;11.290;2024-03-23T07:39:41;101110.66;;;18.17;42.22
78773;BME280;68111;44.728;11.290;2024-03-23T07:42:07;101108.78;;;18.22;42.32
78773;BME280;68111;44.728;11.290;2024-03-23T07:44:32;101096.25;;;18.24;42.22
78773;BME280;68111;44.728;11.290;2024-03-23T07:47:00;101092.56;;;18.28;42.24
78773;BME280;68111;44.728;11.290;2024-03-23T07:49:26;101098.72;;;18.32;41.95
78773;BME280;68111;44.728;11.290;2024-03-23T07:51:52;101091.47;;;18.37;42.05
78773;BME280;68111;44.728;11.290;2024-03-23T07:54:19;101086.91;;;18.40;42.15
78773;BME280;68111;44.728;11.290;2024-03-23T07:56:45;101087.72;;;18.44;42.06
78773;BME280;68111;44.728;11.290;2024-03-23T07:59:11;101081.41;;;18.46;42.19
78773;BME280;68111;44.728;11.290;2024-03-23T08:01:36;101070.63;;;18.49;42.44
78773;BME280;68111;44.728;11.290;2024-03-23T08:04:02;101073.19;;;18.54;42.20
78773;BME280;68111;44.728;11.290;2024-03-23T08:06:28;101073.06;;;18.59;42.06
78773;BME280;68111;44.728;11.290;2024-03-23T08:08:55;101063.16;;;18.64;42.24
78773;BME280;68111;44.728;11.290;2024-03-23T08:11:29;101060.31;;;18.70;41.84
78773;BME280;68111;44.728;11.290;2024-03-23T08:13:55;101068.19;;;18.76;41.62
78773;BME280;68111;44.728;11.290;2024-03-23T08:16:21;101071.53;;;18.84;41.31
78773;BME280;68111;44.728;11.290;2024-03-23T08:18:47;101065.06;;;18.93;41.19
78773;BME280;68111;44.728;11.290;2024-03-23T08:21:13;101068.41;;;19.01;41.00
78773;BME280;68111;44.728;11.290;2024-03-23T08:23:39;101063.66;;;19.10;41.35
78773;BME280;68111;44.728;11.290;2024-03-23T08:26:06;101058.03;;;19.19;41.39
78773;BME280;68111;44.728;11.290;2024-03-23T08:28:36;101056.03;;;19.28;41.23
78773;BME280;68111;44.728;11.290;2024-03-23T08:31:08;101059.28;;;19.39;40.70
78773;BME280;68111;44.728;11.290;2024-03-23T08:33:34;101055.47;;;19.46;40.36
78773;BME280;68111;44.728;11.290;2024-03-23T08:36:02;101058.88;;;19.54;39.96
78773;BME280;68111;44.728;11.290;2024-03-23T08:38:29;101063.97;;;19.63;39.45
78773;BME280;68111;44.728;11.290;2024-03-23T08:41:02;101048.53;;;19.71;39.10
78773;BME280;68111;44.728;11.290;2024-03-23T08:43:30;101048.22;;;19.80;39.04
78773;BME280;68111;44.728;11.290;2024-03-23T08:48:34;101038.69;;;20.00;38.41
78773;BME280;68111;44.728;11.290;2024-03-23T08:51:04;101040.97;;;20.12;38.27
78773;BME280;68111;44.728;11.290;2024-03-23T08:53:31;101031.69;;;20.22;38.23
78773;BME280;68111;44.728;11.290;2024-03-23T08:55:57;101031.28;;;20.34;38.04
78773;BME280;68111;44.728;11.290;2024-03-23T08:58:25;101008.63;;;20.43;37.99
78773;BME280;68111;44.728;11.290;2024-03-23T09:00:56;100996.69;;;20.52;37.55
78773;BME280;68111;44.728;11.290;2024-03-23T09:03:25;100992.75;;;20.62;37.21
78773;BME280;68111;44.728;11.290;2024-03-23T09:05:52;101003.22;;;20.69;37.28
78773;BME280;68111;44.728;11.290;2024-03-23T09:08:19;101004.69;;;20.78;37.03
78773;BME280;68111;44.728;11.290;2024-03-23T09:10:45;101008.97;;;20.85;36.69
78773;BME280;68111;44.728;11.290;2024-03-23T09:13:11;101013.94;;;20.96;36.55
78773;BME280;68111;44.728;11.290;2024-03-23T09:15:45;101010.03;;;21.04;36.49
78773;BME280;68111;44.728;11.290;2024-03-23T09:18:10;101009.63;;;21.15;36.34
78773;BME280;68111;44.728;11.290;2024-03-23T09:20:36;101007.56;;;21.23;36.54
78773;BME280;68111;44.728;11.290;2024-03-23T09:23:02;101004.59;;;21.31;36.08
78773;BME280;68111;44.728;11.290;2024-03-23T09:25:28;100999.84;;;21.37;36.49
78773;BME280;68111;44.728;11.290;2024-03-23T09:27:54;100995.13;;;21.44;36.12
78773;BME280;68111;44.728;11.290;2024-03-23T09:30:19;100995.75;;;21.51;36.19
78773;BME280;68111;44.728;11.290;2024-03-23T09:32:46;100993.63;;;21.59;35.68
78773;BME280;68111;44.728;11.290;2024-03-23T09:35:12;100978.88;;;21.69;35.32
78773;BME280;68111;44.728;11.290;2024-03-23T09:37:41;100981.13;;;21.80;34.90
78773;BME280;68111;44.728;11.290;2024-03-23T09:40:10;100982.38;;;21.93;35.31
78773;BME280;68111;44.728;11.290;2024-03-23T09:42:40;100976.63;;;22.02;34.82
78773;BME280;68111;44.728;11.290;2024-03-23T09:45:30;100968.16;;;22.13;35.09
78773;BME280;68111;44.728;11.290;2024-03-23T09:47:57;100968.66;;;22.22;34.75
78773;BME280;68111;44.728;11.290;2024-03-23T09:50:23;100967.44;;;22.29;34.31
78773;BME280;68111;44.728;11.290;2024-03-23T09:52:49;100967.13;;;22.37;33.95
78773;BME280;68111;44.728;11.290;2024-03-23T09:55:15;100960.44;;;22.46;33.37
78773;BME280;68111;44.728;11.290;2024-03-23T09:57:41;100951.97;;;22.55;33.03
78773;BME280;68111;44.728;11.290;2024-03-23T10:00:08;100962.34;;;22.64;32.62
78773;BME280;68111;44.728;11.290;2024-03-23T10:02:35;100962.88;;;22.72;32.98
78773;BME280;68111;44.728;11.290;2024-03-23T10:05:01;100963.47;;;22.79;32.92
78773;BME280;68111;44.728;11.290;2024-03-23T10:07:27;100961.47;;;22.84;33.20
78773;BME280;68111;44.728;11.290;2024-03-23T10:09:56;100959.38;;;22.90;33.66
78773;BME280;68111;44.728;11.290;2024-03-23T10:12:23;100963.69;;;22.94;33.29
78773;BME280;68111;44.728;11.290;2024-03-23T10:14:50;100965.28;;;22.98;33.77
78773;BME280;68111;44.728;11.290;2024-03-23T10:17:20;100955.31;;;23.01;33.27
78773;BME280;68111;44.728;11.290;2024-03-23T10:19:47;100937.03;;;23.07;32.74
78773;BME280;68111;44.728;11.290;2024-03-23T10:22:24;100933.97;;;23.15;33.18
78773;BME280;68111;44.728;11.290;2024-03-23T10:24:50;100939.81;;;23.24;32.85
78773;BME280;68111;44.728;11.290;2024-03-23T10:27:19;100933.97;;;23.34;33.37
78773;BME280;68111;44.728;11.290;2024-03-23T10:29:49;100920.16;;;23.41;32.86
78773;BME280;68111;44.728;11.290;2024-03-23T10:32:16;100921.59;;;23.48;32.58
78773;BME280;68111;44.728;11.290;2024-03-23T10:34:43;100917.69;;;23.55;32.91
78773;BME280;68111;44.728;11.290;2024-03-23T10:37:09;100919.28;;;23.59;32.86
78773;BME280;68111;44.728;11.290;2024-03-23T10:39:37;100917.22;;;23.65;33.19
78773;BME280;68111;44.728;11.290;2024-03-23T10:42:05;100911.69;;;23.68;32.68
78773;BME280;68111;44.728;11.290;2024-03-23T10:44:31;100903.34;;;23.72;32.95
78773;BME280;68111;44.728;11.290;2024-03-23T10:47:01;100900.44;;;23.77;32.82
78773;BME280;68111;44.728;11.290;2024-03-23T10:49:29;100890.28;;;23.82;32.64
78773;BME280;68111;44.728;11.290;2024-03-23T10:52:05;100882.00;;;23.85;32.73
78773;BME280;68111;44.728;11.290;2024-03-23T10:54:32;100878.22;;;23.89;33.08
78773;BME280;68111;44.728;11.290;2024-03-23T11:00:10;100858.19;;;23.93;32.60
78773;BME280;68111;44.728;11.290;2024-03-23T11:02:36;100861.53;;;23.98;32.44
78773;BME280;68111;44.728;11.290;2024-03-23T11:05:28;100844.28;;;24.01;32.24
78773;BME280;68111;44.728;11.290;2024-03-23T11:07:54;100842.22;;;24.06;32.46
78773;BME280;68111;44.728;11.290;2024-03-23T11:10:38;100838.56;;;24.07;32.50
78773;BME280;68111;44.728;11.290;2024-03-23T11:13:22;100840.25;;;24.09;32.24
78773;BME280;68111;44.728;11.290;2024-03-23T11:15:48;100844.53;;;24.13;32.37
78773;BME280;68111;44.728;11.290;2024-03-23T11:18:20;100842.63;;;24.15;32.55
78773;BME280;68111;44.728;11.290;2024-03-23T11:20:46;100842.47;;;24.18;31.71
78773;BME280;68111;44.728;11.290;2024-03-23T11:23:28;100830.53;;;24.22;31.46
78773;BME280;68111;44.728;11.290;2024-03-23T11:25:54;100820.53;;;24.24;31.95
78773;BME280;68111;44.728;11.290;2024-03-23T11:28:20;100816.88;;;24.25;31.14
78773;BME280;68111;44.728;11.290;2024-03-23T11:30:45;100808.63;;;24.29;31.00
78773;BME280;68111;44.728;11.290;2024-03-23T11:33:12;100793.91;;;24.34;30.70
78773;BME280;68111;44.728;11.290;2024-03-23T11:35:39;100785.56;;;24.39;30.11
78773;BME280;68111;44.728;11.290;2024-03-23T11:38:13;100772.66;;;24.44;30.28
78773;BME280;68111;44.728;11.290;2024-03-23T11:40:48;100774.16;;;24.49;29.71
78773;BME280;68111;44.728;11.290;2024-03-23T11:45:45;100784.38;;;24.60;30.02
78773;BME280;68111;44.728;11.290;2024-03-23T11:48:11;100790.47;;;24.64;30.47
78773;BME280;68111;44.728;11.290;2024-03-23T11:50:40;100794.06;;;24.64;30.66
78773;BME280;68111;44.728;11.290;2024-03-23T11:53:20;100782.38;;;24.64;30.87
78773;BME280;68111;44.728;11.290;2024-03-23T11:58:14;100760.66;;;24.65;30.96
78773;BME280;68111;44.728;11.290;2024-03-23T12:00:40;100753.34;;;24.67;30.83
78773;BME280;68111;44.728;11.290;2024-03-23T12:03:06;100754.22;;;24.68;31.34
78773;BME280;68111;44.728;11.290;2024-03-23T12:05:33;100744.28;;;24.68;31.01
78773;BME280;68111;44.728;11.290;2024-03-23T12:08:18;100737.03;;;24.69;30.43
78773;BME280;68111;44.728;11.290;2024-03-23T12:10:48;100727.91;;;24.71;30.42
78773;BME280;68111;44.728;11.290;2024-03-23T12:13:16;100724.16;;;24.74;30.07
78773;BME280;68111;44.728;11.290;2024-03-23T12:15:43;100718.66;;;24.75;29.96
78773;BME280;68111;44.728;11.290;2024-03-23T12:18:09;100714.81;;;24.79;30.17
78773;BME280;68111;44.728;11.290;2024-03-23T12:20:37;100716.47;;;24.82;30.67
78773;BME280;68111;44.728;11.290;2024-03-23T12:23:11;100700.25;;;24.82;30.82
78773;BME280;68111;44.728;11.290;2024-03-23T12:25:40;100704.63;;;24.84;31.30
78773;BME280;68111;44.728;11.290;2024-03-23T12:28:07;100700.16;;;24.83;31.31
78773;BME280;68111;44.728;11.290;2024-03-23T12:30:39;100693.00;;;24.82;30.95
78773;BME280;68111;44.728;11.290;2024-03-23T12:33:07;100692.16;;;24.82;31.22
78773;BME280;68111;44.728;11.290;2024-03-23T12:35:33;100699.28;;;24.83;30.53
78773;BME280;68111;44.728;11.290;2024-03-23T12:37:59;100693.88;;;24.83;30.56
78773;BME280;68111;44.728;11.290;2024-03-23T12:40:25;100679.31;;;24.85;30.00
78773;BME280;68111;44.728;11.290;2024-03-23T12:42:52;100675.56;;;24.88;30.40
78773;BME280;68111;44.728;11.290;2024-03-23T12:45:18;100656.53;;;24.89;30.21
78773;BME280;68111;44.728;11.290;2024-03-23T12:47:44;100651.03;;;24.91;29.61
78773;BME280;68111;44.728;11.290;2024-03-23T12:50:09;100639.09;;;24.95;28.86
78773;BME280;68111;44.728;11.290;2024-03-23T12:52:36;100639.91;;;24.97;29.15
78773;BME280;68111;44.728;11.290;2024-03-23T12:55:02;100645.31;;;24.97;29.19
78773;BME280;68111;44.728;11.290;2024-03-23T12:57:29;100638.06;;;24.98;29.55
78773;BME280;68111;44.728;11.290;2024-03-23T12:59:54;100635.34;;;24.98;30.18
78773;BME280;68111;44.728;11.290;2024-03-23T13:02:21;100623.72;;;24.96;29.36
78773;BME280;68111;44.728;11.290;2024-03-23T13:04:49;100614.66;;;24.97;29.70
78773;BME280;68111;44.728;11.290;2024-03-23T13:07:16;100611.94;;;24.97;30.08
78773;BME280;68111;44.728;11.290;2024-03-23T13:09:42;100599.31;;;24.97;28.97
78773;BME280;68111;44.728;11.290;2024-03-23T13:12:08;100591.13;;;24.99;28.77
78773;BME280;68111;44.728;11.290;2024-03-23T13:14:34;100591.91;;;25.01;28.94
78773;BME280;68111;44.728;11.290;2024-03-23T13:17:00;100592.69;;;25.03;29.37
78773;BME280;68111;44.728;11.290;2024-03-23T13:19:25;100583.69;;;25.02;29.22
78773;BME280;68111;44.728;11.290;2024-03-23T13:21:54;100577.41;;;25.02;30.01
78773;BME280;68111;44.728;11.290;2024-03-23T13:24:24;100580.22;;;25.00;30.10
78773;BME280;68111;44.728;11.290;2024-03-23T13:26:51;100586.59;;;24.99;30.20
78773;BME280;68111;44.728;11.290;2024-03-23T13:29:18;100589.38;;;24.98;30.72
78773;BME280;68111;44.728;11.290;2024-03-23T13:31:45;100575.91;;;24.96;30.69
78773;BME280;68111;44.728;11.290;2024-03-23T13:34:11;100563.44;;;24.94;31.07
78773;BME280;68111;44.728;11.290;2024-03-23T13:36:38;100551.75;;;24.93;30.77
78773;BME280;68111;44.728;11.290;2024-03-23T13:39:04;100557.25;;;24.92;29.97
78773;BME280;68111;44.728;11.290;2024-03-23T13:41:41;100554.66;;;24.90;29.87
78773;BME280;68111;44.728;11.290;2024-03-23T13:44:08;100552.03;;;24.88;30.25